Latest Weather Observations for Terrey Hills

IDN60901

Issued at 10:11 pm EST Tuesday 27 September 2016 (issued every 10 minutes, with the page automatically refreshed every 10 minutes)

About weather observations | Map of Sydney area stations | Latest observations for Sydney area | Other Formats
Station Details ID: 066059 Name: TERREY HILLS AWS Lat: -33.69 Lon: 151.23 Height: 199.0 m
Data from the previous 72 hours. | See also: Recent months at Terrey Hills
Date/Time
EST
Temp
°C
App
Temp
°C
Dew
Point
°C
Rel
Hum
%
Delta-T
°C
Wind Press
QNH
hPa
Press
MSL
hPa
Rain since
9am
mm
Dir  Spd
km/h
Gust
km/h
Spd
kts
Gust
kts
27/10:00pm 10.9 7.4 1.2 51 4.1 WSW 9 13 5 7 - - 0.0
27/09:30pm 11.9 8.0 1.0 47 4.6 WSW 11 15 6 8 - - 0.0
27/09:00pm 12.2 8.6 0.6 45 4.9 WSW 9 13 5 7 - - 0.0
27/08:30pm 12.7 8.7 0.5 43 5.2 WSW 11 17 6 9 - - 0.0
27/08:00pm 13.1 8.7 0.2 41 5.4 WSW 13 20 7 11 - - 0.0
27/07:30pm 13.5 9.7 -0.5 38 5.8 WSW 9 15 5 8 - - 0.0
27/07:00pm 14.0 9.4 -0.8 36 6.2 SW 13 20 7 11 - - 0.0
27/06:30pm 14.6 8.7 -1.9 32 6.7 SW 19 33 10 18 - - 0.0
27/06:00pm 15.1 9.1 -1.5 32 6.9 WSW 20 44 11 24 - - 0.0
27/05:30pm 15.8 9.9 -0.8 32 7.0 WSW 20 39 11 21 - - 0.0
27/05:00pm 16.6 8.7 -1.5 29 7.6 SW 30 52 16 28 - - 0.0
27/04:39pm 17.2 9.7 -1.4 28 7.9 SW 28 54 15 29 - - 0.0
27/04:30pm 17.4 10.3 -1.3 28 7.9 SW 26 41 14 22 - - 0.0
27/04:00pm 18.4 11.7 -1.4 26 8.5 SW 24 44 13 24 - - 0.0
27/03:43pm 18.9 11.2 -3.3 22 9.2 WSW 28 50 15 27 - - 0.0
27/03:30pm 19.4 12.2 -2.2 23 9.2 WSW 26 48 14 26 - - 0.0
27/03:13pm 19.5 11.7 -3.4 21 9.5 WSW 28 46 15 25 - - 0.0
27/03:00pm 20.0 13.1 -3.0 21 9.7 WSW 24 37 13 20 - - 0.0
27/02:30pm 20.6 14.3 -3.8 19 10.1 W 20 37 11 20 - - 0.0
27/02:00pm 20.5 13.4 -4.6 18 10.3 WSW 24 46 13 25 - - 0.0
27/01:30pm 20.2 13.3 0.1 26 9.0 W 26 43 14 23 - - 0.0
27/01:00pm 20.7 13.9 1.1 27 9.0 W 26 54 14 29 - - 0.0
27/12:35pm 21.1 14.2 2.4 29 8.8 W 28 52 15 28 - - 0.0
27/12:30pm 21.1 15.0 2.9 30 8.7 W 24 52 13 28 - - 0.0
27/12:00pm 20.9 16.0 4.0 33 8.2 W 19 33 10 18 - - 0.0
27/11:44am 20.7 16.1 3.9 33 8.1 W 17 50 9 27 - - 0.0
27/11:30am 19.6 17.1 6.7 43 6.5 WNW 9 20 5 11 - - 0.0
27/11:00am 18.5 16.4 6.7 46 5.9 NW 7 20 4 11 - - 0.0
27/10:30am 17.6 13.9 4.6 42 6.2 NNW 13 24 7 13 - - 0.0
27/10:00am 17.3 13.4 5.3 45 5.8 N 15 24 8 13 - - 0.0
27/09:30am 16.5 13.4 5.5 48 5.3 N 11 19 6 10 - - 0.0
27/09:00am 15.5 11.8 4.3 47 5.3 N 13 24 7 13 - - 0.0
27/08:30am 14.8 11.6 5.1 52 4.6 NNW 11 24 6 13 - - 0.0
27/08:00am 13.1 10.3 5.0 58 3.8 NNW 9 19 5 10 - - 0.0
27/07:30am 12.0 8.6 4.2 59 3.6 NNW 11 20 6 11 - - 0.0
27/07:00am 11.6 7.9 4.3 61 3.3 NNW 13 26 7 14 - - 0.0
27/06:30am 11.2 7.4 3.7 60 3.4 NNW 13 24 7 13 - - 0.0
27/06:00am 11.5 8.1 3.8 59 3.5 NW 11 19 6 10 - - 0.0
27/05:30am 11.3 7.9 4.1 61 3.3 NW 11 20 6 11 - - 0.0
27/05:00am 10.5 7.1 4.2 65 2.8 NW 11 20 6 11 - - 0.0
27/04:30am 10.1 7.5 4.0 66 2.7 NW 7 13 4 7 - - 0.0
27/04:00am 10.0 7.0 4.2 67 2.6 NW 9 15 5 8 - - 0.0
27/03:30am 10.2 7.2 4.1 66 2.7 NW 9 19 5 10 - - 0.0
27/03:00am 10.0 7.4 4.2 67 2.6 WNW 7 15 4 8 - - 0.0
27/02:30am 9.7 7.1 4.1 68 2.5 WNW 7 13 4 7 - - 0.0
27/02:00am 9.5 6.8 3.9 68 2.5 WNW 7 13 4 7 - - 0.0
27/01:30am 9.7 7.0 3.7 66 2.7 WNW 7 15 4 8 - - 0.0
27/01:00am 9.5 6.4 3.5 66 2.6 WNW 9 13 5 7 - - 0.0
27/12:30am 10.3 7.5 2.9 60 3.2 WNW 7 11 4 6 - - 0.0
27/12:00am 10.5 7.6 2.8 59 3.4 WNW 7 11 4 6 - - 0.0
 
Date/Time
EST
Temp
°C
App
Temp
°C
Dew
Point
°C
Rel
Hum
%
Delta-T
°C
Wind Press
QNH
hPa
Press
MSL
hPa
Rain since
9am
mm
Dir  Spd
km/h
Gust
km/h
Spd
kts
Gust
kts
26/11:30pm 10.8 8.0 2.9 58 3.5 WNW 7 13 4 7 - - 0.0
26/11:00pm 10.8 8.1 3.6 61 3.2 WNW 7 13 4 7 - - 0.0
26/10:30pm 10.6 7.7 4.9 68 2.6 WNW 9 13 5 7 - - 0.0
26/10:00pm 10.9 8.6 4.8 66 2.8 WNW 6 9 3 5 - - 0.0
26/09:30pm 11.3 9.1 5.2 66 2.8 W 6 9 3 5 - - 0.0
26/09:00pm 11.8 9.9 6.7 71 2.5 W 6 7 3 4 - - 0.0
26/08:30pm 12.2 10.7 8.3 77 1.9 W 6 9 3 5 - - 0.0
26/08:00pm 12.1 10.9 9.7 85 1.2 W 6 6 3 3 - - 0.0
26/07:30pm 12.6 11.4 9.6 82 1.5 W 6 7 3 4 - - 0.0
26/07:00pm 13.4 12.4 8.9 74 2.3 SW 4 7 2 4 - - 0.0
26/06:30pm 14.2 13.2 9.0 71 2.7 SSW 4 6 2 3 - - 0.0
26/06:00pm 14.2 13.1 8.6 69 2.8 SSE 4 9 2 5 - - 0.0
26/05:30pm 14.6 13.4 8.1 65 3.3 SSE 4 9 2 5 - - 0.0
26/05:00pm 15.2 12.9 7.5 60 3.9 SE 9 15 5 8 - - 0.0
26/04:30pm 15.7 13.6 6.7 55 4.5 ESE 7 13 4 7 - - 0.0
26/04:00pm 16.2 13.3 6.6 53 4.8 ESE 11 20 6 11 - - 0.0
26/03:30pm 16.6 13.6 5.9 49 5.2 ESE 11 17 6 9 - - 0.0
26/03:00pm 17.1 14.5 6.0 48 5.5 ESE 9 15 5 8 - - 0.0
26/02:30pm 17.6 15.0 6.2 47 5.7 ESE 9 15 5 8 - - 0.0
26/02:00pm 17.7 14.8 6.3 47 5.7 ESE 11 17 6 9 - - 0.0
26/01:30pm 18.6 16.3 4.8 40 6.7 ENE 6 9 3 5 - - 0.0
26/01:00pm 18.7 16.0 2.5 34 7.5 NNW 6 13 3 7 - - 0.0
26/12:30pm 18.2 15.9 2.5 35 7.3 NW 4 9 2 5 - - 0.0
26/12:00pm 17.6 14.7 2.4 36 7.0 W 7 11 4 6 - - 0.0
26/11:30am 17.1 14.3 1.9 36 6.9 WSW 6 15 3 8 - - 0.0
26/11:00am 16.7 13.6 3.7 42 6.1 SW 9 17 5 9 - - 0.0
26/10:30am 16.3 12.9 2.0 38 6.4 SW 9 17 5 9 - - 0.0
26/10:00am 15.5 12.5 3.9 46 5.4 W 9 15 5 8 - - 0.0
26/09:30am 14.8 11.5 4.8 51 4.7 W 11 20 6 11 - - 0.0
26/09:00am 14.0 10.9 5.6 57 4.0 WSW 11 19 6 10 - - 0.2
26/08:30am 13.4 10.3 7.2 66 3.0 WSW 13 20 7 11 - - 0.2
26/08:00am 12.8 9.8 7.9 72 2.4 SW 13 22 7 12 - - 0.2
26/07:30am 11.9 9.2 7.4 74 2.2 WSW 11 19 6 10 - - 0.2
26/07:00am 11.3 9.1 7.8 79 1.7 SW 9 17 5 9 - - 0.2
26/06:30am 10.6 8.6 8.5 87 1.0 SW 9 17 5 9 - - 0.2
26/06:00am 10.1 8.6 9.0 93 0.5 SW 7 15 4 8 - - 0.2
26/05:30am 10.3 8.6 9.8 97 0.3 SW 9 15 5 8 - - 0.2
26/05:00am 10.8 9.3 10.6 99 0.1 WSW 9 17 5 9 - - 0.2
26/04:30am 10.8 9.4 10.8 100 0.0 WSW 9 15 5 8 - - 0.2
26/04:00am 11.1 9.7 10.9 99 0.1 WSW 9 15 5 8 - - 0.2
26/03:30am 11.4 10.1 11.2 99 0.1 SW 9 19 5 10 - - 0.2
26/03:00am 11.7 10.5 11.7 100 0.0 SW 9 17 5 9 - - 0.2
26/02:30am 11.6 10.0 11.6 100 0.0 SW 11 17 6 9 - - 0.2
26/02:00am 11.3 9.6 11.3 100 0.0 WSW 11 15 6 8 - - 0.2
26/01:30am 11.5 9.9 11.5 100 0.0 WSW 11 15 6 8 - - 0.2
26/01:00am 11.0 9.6 11.0 100 0.0 W 9 13 5 7 - - 0.2
26/12:30am 11.3 10.0 11.3 100 0.0 W 9 11 5 6 - - 0.2
26/12:00am 11.4 10.1 11.4 100 0.0 W 9 11 5 6 - - 0.2
 
Date/Time
EST
Temp
°C
App
Temp
°C
Dew
Point
°C
Rel
Hum
%
Delta-T
°C
Wind Press
QNH
hPa
Press
MSL
hPa
Rain since
9am
mm
Dir  Spd
km/h
Gust
km/h
Spd
kts
Gust
kts
25/11:30pm 11.8 11.0 11.8 100 0.0 W 7 13 4 7 - - 0.2
25/11:00pm 12.0 10.9 11.8 99 0.1 W 9 13 5 7 - - 0.0
25/10:30pm 11.9 10.8 11.9 100 0.0 W 9 11 5 6 - - 0.0
25/10:00pm 11.9 10.8 11.9 100 0.0 W 9 13 5 7 - - 0.0
25/09:30pm 12.9 12.3 12.3 96 0.3 WSW 7 9 4 5 - - 0.0
25/09:00pm 13.7 12.8 12.6 93 0.6 WSW 9 15 5 8 - - 0.0
25/08:30pm 13.7 13.2 12.6 93 0.6 SSW 7 13 4 7 - - 0.0
25/08:00pm 13.9 13.2 12.1 89 1.0 SSW 7 11 4 6 - - 0.0
25/07:30pm 14.1 13.6 12.1 88 1.1 SW 6 13 3 7 - - 0.0
25/07:00pm 14.3 13.5 11.8 85 1.4 SSW 7 17 4 9 - - 0.0
25/06:30pm 14.9 14.2 11.9 82 1.6 S 7 13 4 7 - - 0.0
25/06:00pm 15.0 14.0 12.3 84 1.5 S 9 19 5 10 - - 0.0
25/05:30pm 15.3 14.3 12.2 82 1.7 S 9 17 5 9 - - 0.0
25/05:00pm 15.8 15.2 12.2 79 2.0 SSW 7 15 4 8 - - 0.0
25/04:30pm 16.2 15.4 11.8 75 2.4 SSE 7 17 4 9 - - 0.0
25/04:00pm 16.0 15.3 12.0 77 2.2 SSE 7 15 4 8 - - 0.0
25/03:30pm 15.9 15.1 13.0 83 1.6 SSE 9 19 5 10 - - 0.0
25/03:00pm 14.6 14.6 13.5 93 0.6 SE 6 9 3 5 - - 0.0
25/02:30pm 14.9 14.4 12.8 87 1.2 SSE 7 15 4 8 - - 0.0
25/02:00pm 19.2 17.1 9.7 54 5.1 W 11 24 6 13 - - 0.0
25/01:30pm 19.8 18.7 10.8 56 4.9 W 7 13 4 7 - - 0.0
25/01:00pm 18.8 17.2 10.1 57 4.7 WSW 9 17 5 9 - - 0.0
25/12:30pm 19.1 17.5 11.7 62 4.1 W 11 24 6 13 - - 0.0
25/12:00pm 18.8 17.1 12.3 66 3.6 WSW 13 22 7 12 - - 0.0
25/11:30am 17.1 16.0 13.0 77 2.3 WNW 11 19 6 10 - - 0.0
25/11:00am 15.5 14.7 12.8 84 1.5 W 9 15 5 8 - - 0.0
25/10:30am 14.9 14.0 12.6 86 1.3 WNW 9 15 5 8 - - 0.0
25/10:00am 14.3 13.4 12.7 90 0.9 WNW 9 13 5 7 - - 0.0
25/09:30am 13.8 12.9 12.5 92 0.7 WNW 9 17 5 9 - - 0.0
25/09:00am 13.1 12.6 12.5 96 0.3 WNW 7 15 4 8 - - 1.8
25/08:30am 12.6 11.2 12.1 97 0.3 NW 11 19 6 10 - - 1.6
25/08:00am 12.2 11.1 12.0 99 0.1 WNW 9 15 5 8 - - 1.6
25/07:30am 11.9 11.2 11.9 100 0.0 WNW 7 13 4 7 - - 1.6
25/07:00am 11.8 11.2 11.8 100 0.0 NW 6 11 3 6 - - 1.6
25/06:30am 11.8 11.2 11.8 100 0.0 WNW 6 11 3 6 - - 1.4
25/06:00am 12.0 11.4 11.8 99 0.1 WNW 6 9 3 5 - - 1.0
25/05:30am 12.4 11.6 11.8 96 0.3 WNW 7 11 4 6 - - 1.0
25/05:00am 12.7 11.9 11.6 93 0.6 WNW 7 11 4 6 - - 0.8
25/04:30am 13.1 12.4 12.0 93 0.6 WNW 7 17 4 9 - - 0.8
25/04:00am 13.3 12.4 12.5 95 0.4 WNW 9 17 5 9 - - 0.8
25/03:30am 13.8 13.1 13.2 96 0.3 NW 9 17 5 9 - - 0.6
25/03:00am 14.6 13.5 13.1 91 0.8 NW 11 20 6 11 - - 0.2
25/02:30am 15.2 14.4 14.1 93 0.6 WNW 11 24 6 13 - - 0.0
25/02:00am 15.3 15.3 14.3 94 0.6 WNW 7 13 4 7 - - 0.0
25/01:30am 15.2 15.2 14.1 93 0.6 NW 7 11 4 6 - - 0.0
25/01:00am 15.1 15.1 14.1 94 0.6 NW 7 9 4 5 - - 0.0
25/12:30am 15.3 15.4 14.5 95 0.5 NW 7 13 4 7 - - 0.0
25/12:00am 15.4 15.7 15.1 98 0.2 NW 7 13 4 7 - - 0.0
 
Date/Time
EST
Temp
°C
App
Temp
°C
Dew
Point
°C
Rel
Hum
%
Delta-T
°C
Wind Press
QNH
hPa
Press
MSL
hPa
Rain since
9am
mm
Dir  Spd
km/h
Gust
km/h
Spd
kts
Gust
kts
24/11:30pm 15.7 15.7 15.2 97 0.3 N 9 15 5 8 - - 0.0
24/11:00pm 15.8 15.6 15.6 99 0.1 N 11 17 6 9 - - 0.0
24/10:30pm 15.8 15.3 15.8 100 0.0 N 13 19 7 10 - - 0.0

Latest Capital City Observations: Canberra | Sydney | Melbourne | Brisbane | Adelaide | Perth | Hobart | Darwin

Other Formats:

Comma delimited format used in spreadsheet applications
http://www.bom.gov.au/fwo/IDN60901/IDN60901.94759.axf

JavaScript Object Notation format (JSON) in row-major order
http://www.bom.gov.au/fwo/IDN60901/IDN60901.94759.json